Time;durP1;ratioP1;P1;durP2;ratioP2;P2;SDS_P1;SDS_P2;PMS_P1;PMS_P2;Temp;Humidity;BMP_temperature;BMP_pressure;BME280_temperature;BME280_humidity;BME280_pressure;Samples;Min_cycle;Max_cycle;Signal;HPM_P1;HPM_P2
2021/12/25 00:01:46;;;;;;;11.35;7.05;;;;;;;15.50;52.08;100205.16;5090420;28;20476;-56
2021/12/25 00:04:11;;;;;;;13.75;7.50;;;;;;;15.46;52.16;100208.34;5093973;28;20020;-56
2021/12/25 00:06:37;;;;;;;14.73;6.28;;;;;;;15.38;52.03;100201.13;5075757;28;20085;-56
2021/12/25 00:09:04;;;;;;;14.80;6.55;;;;;;;15.29;50.51;100196.78;5091645;28;20032;-57
2021/12/25 00:11:29;;;;;;;10.52;5.68;;;;;;;15.23;51.68;100202.88;5075393;28;20110;-56
2021/12/25 00:13:55;;;;;;;12.70;6.65;;;;;;;15.18;50.75;100210.66;5093388;28;20804;-56
2021/12/25 00:16:20;;;;;;;10.57;5.53;;;;;;;15.09;51.18;100212.53;5091930;28;20420;-57
2021/12/25 00:18:46;;;;;;;10.20;5.35;;;;;;;15.03;50.78;100199.75;5091576;28;20033;-56
2021/12/25 00:21:12;;;;;;;14.80;5.95;;;;;;;14.96;51.38;100200.63;5093382;28;20472;-57
2021/12/25 00:23:38;;;;;;;10.70;5.88;;;;;;;14.90;51.07;100201.31;5092362;28;20429;-57
2021/12/25 00:26:23;;;;;;;19.25;6.53;;;;;;;14.80;51.08;100192.53;5094159;28;20492;-57
2021/12/25 00:29:04;;;;;;;16.58;6.28;;;;;;;14.81;52.58;100196.94;5090999;28;20032;-57
2021/12/25 00:32:07;;;;;;;10.80;4.90;;;;;;;14.78;51.09;100208.06;5091495;28;20024;-56
2021/12/25 00:34:16;;;;;;;11.43;5.85;;;;;;;14.75;51.11;100197.59;5091957;28;20496;-57
2021/12/25 00:36:41;;;;;;;13.10;5.88;;;;;;;14.72;51.33;100200.66;5089023;28;20035;-57
2021/12/25 00:39:07;;;;;;;11.60;5.55;;;;;;;14.68;51.01;100196.63;5091422;28;20129;-56
2021/12/25 00:41:32;;;;;;;12.68;5.70;;;;;;;14.69;52.19;100204.53;5095370;28;20024;-57
2021/12/25 00:43:58;;;;;;;11.75;6.05;;;;;;;14.67;52.32;100194.94;5096856;28;20028;-56
2021/12/25 00:46:23;;;;;;;12.48;5.60;;;;;;;14.67;52.19;100189.53;5097003;28;20060;-56
2021/12/25 00:48:48;;;;;;;12.00;6.15;;;;;;;14.64;51.12;100185.34;5096618;28;20035;-57
2021/12/25 00:51:14;;;;;;;14.98;6.03;;;;;;;14.65;51.12;100181.63;5078633;28;20016;-57
2021/12/25 00:53:39;;;;;;;17.65;7.10;;;;;;;14.67;52.23;100182.31;5095521;28;20032;-57
2021/12/25 00:56:05;;;;;;;13.70;6.65;;;;;;;14.66;52.26;100187.84;5097228;28;20024;-56
2021/12/25 00:58:30;;;;;;;20.50;6.63;;;;;;;14.67;52.40;100186.84;5095197;28;20480;-56
2021/12/25 01:00:56;;;;;;;17.48;7.53;;;;;;;14.66;50.95;100187.84;5096638;28;20085;-56
2021/12/25 01:03:21;;;;;;;14.10;7.00;;;;;;;14.62;51.33;100184.69;5096518;28;20036;-56
2021/12/25 01:05:46;;;;;;;14.68;6.30;;;;;;;14.58;52.15;100192.25;5096788;28;20085;-57
2021/12/25 01:08:12;;;;;;;12.38;6.40;;;;;;;14.58;51.67;100192.25;5096512;28;20059;-57
2021/12/25 01:10:37;;;;;;;19.38;8.50;;;;;;;14.55;52.01;100189.91;5096772;28;20032;-56
2021/12/25 01:13:09;;;;;;;15.00;7.55;;;;;;;14.53;51.86;100188.38;5096073;28;20053;-56
2021/12/25 01:18:54;;;;;;;14.18;6.18;;;;;;;14.51;52.42;100185.88;5097250;28;20044;-57
2021/12/25 01:31:43;;;;;;;13.57;6.78;;;;;;;14.53;51.79;100189.22;5096748;28;20085;-56
2021/12/25 01:35:27;;;;;;;16.00;7.45;;;;;;;14.51;51.23;100188.56;5096425;28;20369;-56
2021/12/25 01:37:09;;;;;;;16.13;6.68;;;;;;;14.47;50.79;100179.13;5073980;28;20028;-56
2021/12/25 01:47:46;;;;;;;14.48;6.93;;;;;;;14.36;50.99;100171.41;5095931;28;20034;-56
2021/12/25 01:50:12;;;;;;;13.73;6.72;;;;;;;14.37;51.03;100186.56;5092663;28;20089;-57
2021/12/25 01:52:37;;;;;;;11.73;6.88;;;;;;;14.33;50.76;100171.72;5095587;28;20016;-57
2021/12/25 01:55:07;;;;;;;11.85;6.38;;;;;;;14.32;52.11;100178.13;5095587;28;20069;-56
2021/12/25 01:57:33;;;;;;;12.73;6.32;;;;;;;14.28;51.18;100174.06;5093645;28;20073;-57
2021/12/25 02:00:00;;;;;;;12.73;6.70;;;;;;;14.26;51.30;100176.09;5095269;28;20028;-56
2021/12/25 02:02:27;;;;;;;16.02;7.40;;;;;;;14.22;52.00;100182.81;5095615;28;20019;-56
2021/12/25 02:04:53;;;;;;;18.48;7.05;;;;;;;14.20;51.42;100179.47;5094337;28;20080;-56
2021/12/25 02:07:19;;;;;;;11.82;6.20;;;;;;;14.18;51.09;100183.34;5094401;28;20525;-56
2021/12/25 02:09:45;;;;;;;12.82;6.82;;;;;;;14.16;51.22;100188.88;5093723;28;20020;-57
2021/12/25 02:12:11;;;;;;;13.45;5.93;;;;;;;14.10;52.41;100176.06;5094011;28;20031;-57
2021/12/25 02:14:37;;;;;;;9.40;5.30;;;;;;;14.09;52.13;100185.19;5095396;28;20020;-56
2021/12/25 02:17:17;;;;;;;13.15;6.47;;;;;;;14.08;52.43;100182.63;5093678;28;20063;-57
2021/12/25 02:19:53;;;;;;;10.27;5.85;;;;;;;14.06;52.35;100185.50;5093705;28;20040;-57
2021/12/25 02:22:20;;;;;;;10.25;5.28;;;;;;;14.02;52.36;100184.16;5092282;28;20024;-57
2021/12/25 02:24:46;;;;;;;10.82;5.53;;;;;;;13.98;51.49;100183.66;5076570;28;20031;-57
2021/12/25 02:27:12;;;;;;;9.73;5.50;;;;;;;13.96;52.40;100184.81;5095191;28;20024;-56
2021/12/25 02:29:38;;;;;;;11.18;6.03;;;;;;;13.92;52.33;100183.47;5094580;28;20072;-57
2021/12/25 02:32:05;;;;;;;8.75;4.88;;;;;;;13.85;51.66;100177.06;5094577;28;20031;-57
2021/12/25 02:34:30;;;;;;;9.30;5.22;;;;;;;13.80;52.68;100180.25;5094444;28;20027;-57
2021/12/25 02:36:56;;;;;;;10.65;6.00;;;;;;;13.76;51.76;100183.44;5093000;28;20121;-57
2021/12/25 02:39:21;;;;;;;9.35;5.35;;;;;;;13.70;52.57;100178.72;5094375;28;20028;-56
2021/12/25 02:41:46;;;;;;;10.40;5.50;;;;;;;13.65;52.77;100186.47;5076411;28;20073;-56
2021/12/25 02:44:12;;;;;;;9.73;5.60;;;;;;;13.58;51.29;100175.50;5095770;28;20034;-56
2021/12/25 02:46:37;;;;;;;9.13;5.20;;;;;;;13.54;52.66;100181.38;5094585;28;20461;-56
2021/12/25 02:49:03;;;;;;;11.55;5.63;;;;;;;13.46;51.52;100179.50;5095905;28;20023;-57
2021/12/25 02:51:28;;;;;;;10.52;5.90;;;;;;;13.43;51.97;100172.59;5095676;28;20023;-57
2021/12/25 02:53:54;;;;;;;11.27;5.93;;;;;;;13.45;51.53;100179.66;5094364;28;20023;-57
2021/12/25 02:56:20;;;;;;;9.93;5.10;;;;;;;13.45;52.04;100176.97;5095348;28;20024;-56
2021/12/25 02:58:46;;;;;;;10.18;5.60;;;;;;;13.38;51.51;100174.94;5095546;28;20036;-57
2021/12/25 03:01:15;;;;;;;11.32;6.03;;;;;;;13.34;52.08;100184.31;5095624;28;20543;-55
2021/12/25 03:03:41;;;;;;;9.18;4.57;;;;;;;13.27;52.57;100177.94;5093541;28;20015;-56
2021/12/25 03:06:08;;;;;;;12.27;5.57;;;;;;;13.27;52.41;100174.38;5095789;28;20034;-56
2021/12/25 03:08:34;;;;;;;8.98;5.25;;;;;;;13.20;52.58;100166.16;5094162;28;20055;-57
2021/12/25 03:11:00;;;;;;;7.47;4.40;;;;;;;13.15;52.58;100167.63;5095311;28;20031;-56
2021/12/25 03:13:45;;;;;;;9.55;4.65;;;;;;;13.13;52.21;100181.22;5093883;28;20054;-56
2021/12/25 03:16:12;;;;;;;5.90;3.92;;;;;;;13.09;51.74;100179.84;5095677;28;20027;-57
2021/12/25 03:18:45;;;;;;;6.90;4.22;;;;;;;13.07;53.13;100173.78;5094047;28;20390;-58
2021/12/25 03:21:16;;;;;;;6.32;4.30;;;;;;;13.02;52.23;100181.47;5094444;28;20073;-57
2021/12/25 03:23:41;;;;;;;6.75;4.53;;;;;;;12.99;52.13;100176.41;5094452;28;20089;-57
2021/12/25 03:26:07;;;;;;;8.70;4.82;;;;;;;12.95;53.10;100188.50;5095620;28;20446;-56
2021/12/25 03:28:37;;;;;;;9.20;4.65;;;;;;;12.89;52.68;100180.22;5094687;28;20020;-57
2021/12/25 03:31:05;;;;;;;6.53;4.07;;;;;;;12.84;52.34;100181.53;5094770;28;20054;-57
2021/12/25 03:33:32;;;;;;;7.03;3.55;;;;;;;12.81;53.07;100186.41;5094784;28;20022;-57
2021/12/25 03:35:58;;;;;;;7.70;4.32;;;;;;;12.74;52.18;100183.50;5076468;28;20019;-56
2021/12/25 03:38:26;;;;;;;6.65;4.43;;;;;;;12.73;52.50;100184.50;5093608;28;20020;-56
2021/12/25 03:40:52;;;;;;;6.10;4.28;;;;;;;12.68;52.34;100181.47;5095069;28;20078;-57
2021/12/25 03:43:18;;;;;;;6.95;4.35;;;;;;;12.68;53.00;100186.81;5094811;28;20020;-56
2021/12/25 03:45:44;;;;;;;7.00;4.25;;;;;;;12.66;52.95;100194.22;5093580;28;20100;-57
2021/12/25 03:58:32;;;;;;;6.95;4.45;;;;;;;12.56;52.57;100198.00;5094075;28;20085;-57
2021/12/25 04:01:04;;;;;;;8.25;5.05;;;;;;;12.55;51.98;100197.16;5094182;28;20024;-58
2021/12/25 04:03:45;;;;;;;7.47;4.80;;;;;;;12.56;52.63;100198.00;5093282;28;20472;-57
2021/12/25 04:06:10;;;;;;;7.63;4.35;;;;;;;12.49;52.57;100191.56;5094710;28;20034;-56
2021/12/25 04:08:43;;;;;;;10.60;5.05;;;;;;;12.55;52.09;100196.31;5093371;28;20020;-58
2021/12/25 04:11:24;;;;;;;11.95;5.43;;;;;;;12.53;52.76;100198.31;5094250;28;20024;-57
2021/12/25 04:13:50;;;;;;;6.38;3.92;;;;;;;12.49;52.70;100199.63;5094713;28;20077;-57
2021/12/25 04:16:15;;;;;;;6.88;4.43;;;;;;;12.42;53.07;100195.88;5093164;28;20365;-56
2021/12/25 04:18:40;;;;;;;8.55;4.60;;;;;;;12.43;53.21;100202.94;5094369;28;20055;-57
2021/12/25 04:21:06;;;;;;;6.15;4.18;;;;;;;12.41;52.91;100205.78;5094492;28;20028;-57
2021/12/25 04:23:31;;;;;;;6.55;3.90;;;;;;;12.38;53.18;100205.25;5094691;28;20028;-58
2021/12/25 04:25:58;;;;;;;6.72;3.88;;;;;;;12.34;52.51;100214.63;5094345;28;20469;-57
2021/12/25 05:06:04;;;;;;;12.50;7.20;;;;;;;12.02;52.57;100226.75;5088536;28;20036;-58
2021/12/25 05:08:30;;;;;;;12.50;7.05;;;;;;;12.06;52.22;100235.38;5075179;28;20035;-58
2021/12/25 05:10:57;;;;;;;16.40;8.05;;;;;;;12.08;53.09;100226.16;5093506;28;20028;-57
2021/12/25 05:13:22;;;;;;;20.48;8.73;;;;;;;12.07;52.20;100234.34;5093262;28;20024;-57
2021/12/25 05:15:47;;;;;;;14.60;6.70;;;;;;;12.07;51.87;100237.88;5093713;28;20024;-57
2021/12/25 05:18:13;;;;;;;20.45;7.32;;;;;;;12.00;52.31;100242.19;5093529;28;20083;-57
2021/12/25 05:20:38;;;;;;;16.00;7.82;;;;;;;11.97;52.19;100245.19;5075868;28;20081;-58
2021/12/25 05:23:04;;;;;;;16.20;6.80;;;;;;;11.94;52.10;100240.09;5094139;28;20393;-58
2021/12/25 05:25:29;;;;;;;17.55;7.75;;;;;;;11.91;51.90;100245.78;5092527;28;20032;-57
2021/12/25 05:27:55;;;;;;;16.33;7.20;;;;;;;11.94;52.69;100255.38;5097251;28;20032;-58
2021/12/25 05:30:21;;;;;;;14.48;7.05;;;;;;;11.91;52.66;100250.28;5097602;28;20020;-57
2021/12/25 05:32:46;;;;;;;14.45;7.53;;;;;;;11.89;52.25;100255.78;5097085;28;20492;-58
2021/12/25 05:35:12;;;;;;;16.17;7.47;;;;;;;11.86;52.46;100261.50;5095523;28;20058;-57
2021/12/25 05:37:37;;;;;;;14.80;7.03;;;;;;;11.84;52.15;100263.47;5096873;28;20032;-57
2021/12/25 05:40:04;;;;;;;11.07;6.25;;;;;;;11.79;52.96;100257.72;5097172;28;20089;-57
2021/12/25 05:42:29;;;;;;;12.68;6.22;;;;;;;11.74;51.90;100260.00;5096923;28;20396;-57
2021/12/25 05:44:55;;;;;;;12.80;6.93;;;;;;;11.69;52.67;100262.31;5096701;28;20028;-58
2021/12/25 05:47:20;;;;;;;14.15;6.85;;;;;;;11.68;52.12;100268.63;5095567;28;20122;-57
2021/12/25 05:49:45;;;;;;;10.07;6.68;;;;;;;11.64;52.39;100270.75;5096491;28;20023;-58
2021/12/25 05:52:11;;;;;;;12.30;6.47;;;;;;;11.59;52.43;100273.03;5096822;28;20038;-58
2021/12/25 05:54:36;;;;;;;13.55;6.50;;;;;;;11.57;52.62;100279.56;5095579;28;20055;-59
2021/12/25 05:57:02;;;;;;;11.23;6.13;;;;;;;11.51;52.08;100270.25;5096695;28;20483;-57
2021/12/25 05:59:27;;;;;;;10.77;6.22;;;;;;;11.48;52.46;100280.44;5097035;28;20062;-58
2021/12/25 06:01:53;;;;;;;10.85;5.93;;;;;;;11.43;52.16;100277.38;5096952;28;20404;-58
2021/12/25 06:04:18;;;;;;;11.95;6.78;;;;;;;11.41;52.65;100288.25;5096861;28;20042;-58
2021/12/25 06:06:43;;;;;;;12.85;5.95;;;;;;;11.36;51.79;100298.53;5096781;28;20471;-58
2021/12/25 06:09:09;;;;;;;12.50;5.78;;;;;;;11.01;52.03;100250.16;5078270;28;20122;-58
2021/12/25 06:11:38;;;;;;;11.07;5.70;;;;;;;11.25;52.80;100301.41;5096706;28;20446;-58
2021/12/25 06:14:17;;;;;;;10.93;5.75;;;;;;;11.16;52.48;100302.31;5095489;28;20024;-58
2021/12/25 06:16:42;;;;;;;9.55;5.75;;;;;;;11.16;52.62;100313.03;5096755;28;20387;-58
2021/12/25 06:19:08;;;;;;;14.80;6.97;;;;;;;11.11;52.58;100310.78;5095315;28;20056;-58
2021/12/25 06:21:33;;;;;;;10.82;5.95;;;;;;;11.07;52.61;100309.38;5096487;28;20028;-59
2021/12/25 06:24:01;;;;;;;11.00;6.07;;;;;;;11.07;52.54;100312.06;5095021;28;20111;-58
2021/12/25 06:26:27;;;;;;;13.38;6.85;;;;;;;11.05;52.57;100314.03;5095968;28;20020;-58
2021/12/25 06:28:53;;;;;;;11.88;5.97;;;;;;;11.06;52.06;100323.78;5096371;28;20020;-58
2021/12/25 06:31:18;;;;;;;12.05;6.10;;;;;;;11.06;52.26;100321.09;5095091;28;20023;-58
2021/12/25 06:33:44;;;;;;;13.88;7.72;;;;;;;11.06;51.70;100325.59;5096144;28;20051;-58
2021/12/25 06:36:09;;;;;;;8.68;5.63;;;;;;;11.05;51.94;100332.78;5095623;28;20499;-57
2021/12/25 06:38:35;;;;;;;11.10;5.88;;;;;;;11.01;51.71;100330.56;5095402;28;20378;-57
2021/12/25 06:41:01;;;;;;;12.40;6.63;;;;;;;10.99;52.16;100328.03;5094385;28;20020;-58
2021/12/25 06:43:26;;;;;;;10.02;5.68;;;;;;;10.98;52.21;100339.72;5095312;28;20031;-57
2021/12/25 06:45:51;;;;;;;11.18;6.18;;;;;;;10.95;52.16;100331.13;5095567;28;20035;-57
2021/12/25 06:48:17;;;;;;;12.85;6.15;;;;;;;10.94;52.69;100335.63;5095581;28;20101;-57
2021/12/25 06:50:42;;;;;;;12.60;6.18;;;;;;;10.92;52.24;100342.13;5094231;28;20073;-58
2021/12/25 06:53:08;;;;;;;13.63;6.85;;;;;;;10.84;52.08;100340.16;5095568;28;20415;-58
2021/12/25 06:55:33;;;;;;;9.93;5.93;;;;;;;10.78;51.84;100340.72;5095316;28;20473;-57
2021/12/25 06:58:00;;;;;;;11.05;6.63;;;;;;;10.75;52.11;100343.69;5095338;28;20069;-55
2021/12/25 07:00:27;;;;;;;11.50;5.97;;;;;;;10.73;52.12;100350.19;5095344;28;20043;-57
2021/12/25 07:02:52;;;;;;;13.02;7.57;;;;;;;10.63;52.65;100336.81;5094295;28;20071;-58
2021/12/25 07:05:18;;;;;;;14.98;7.15;;;;;;;10.65;52.00;100340.19;5095304;28;20024;-58
2021/12/25 07:07:43;;;;;;;11.10;6.70;;;;;;;10.62;51.96;100344.97;5096150;28;20414;-58
2021/12/25 07:10:09;;;;;;;13.55;6.85;;;;;;;10.55;51.64;100343.88;5093949;28;20024;-58
2021/12/25 07:12:37;;;;;;;12.77;6.85;;;;;;;10.49;52.14;100345.28;5094195;28;20020;-57
2021/12/25 07:15:06;;;;;;;13.50;6.90;;;;;;;10.45;52.00;100349.19;5077110;28;20035;-53
2021/12/25 07:17:32;;;;;;;13.13;7.32;;;;;;;10.43;52.36;100357.38;5093883;28;20081;-55
2021/12/25 07:19:58;;;;;;;12.88;6.97;;;;;;;10.41;52.52;100353.16;5094654;28;20513;-55
2021/12/25 07:22:23;;;;;;;14.50;6.88;;;;;;;10.39;52.35;100357.78;5093396;28;20027;-57
2021/12/25 07:24:49;;;;;;;12.02;6.95;;;;;;;10.37;52.03;100362.44;5095176;28;20020;-57
2021/12/25 07:27:14;;;;;;;12.93;7.65;;;;;;;10.38;51.96;100361.47;5060321;28;20035;-57
2021/12/25 07:29:40;;;;;;;12.40;6.90;;;;;;;10.37;52.21;100367.78;5095481;28;20020;-57
2021/12/25 07:32:05;;;;;;;16.13;8.35;;;;;;;10.38;52.25;100369.50;5094841;28;20492;-57
2021/12/25 07:34:31;;;;;;;17.65;7.78;;;;;;;10.41;52.04;100370.03;5095028;28;20423;-57
2021/12/25 07:36:57;;;;;;;16.52;7.95;;;;;;;10.44;51.65;100375.13;5094639;28;20024;-56
2021/12/25 07:39:22;;;;;;;14.95;6.82;;;;;;;10.40;51.94;100373.72;5093770;28;20027;-56
2021/12/25 07:41:48;;;;;;;20.20;8.70;;;;;;;10.31;51.93;100387.94;5094525;28;20020;-56
2021/12/25 07:44:13;;;;;;;18.05;9.27;;;;;;;10.29;52.03;100386.38;5095219;28;20099;-56
2021/12/25 07:46:39;;;;;;;15.80;8.23;;;;;;;10.28;51.58;100384.69;5094699;28;20412;-56
2021/12/25 07:49:05;;;;;;;18.17;8.13;;;;;;;10.27;51.94;100397.22;5095070;28;20020;-56
2021/12/25 07:51:30;;;;;;;18.05;8.38;;;;;;;10.27;51.95;100389.19;5095135;28;20107;-56
2021/12/25 07:53:55;;;;;;;14.23;7.55;;;;;;;10.25;51.97;100396.50;5093633;28;20569;-56
2021/12/25 07:56:25;;;;;;;15.05;7.50;;;;;;;10.24;51.89;100399.34;5094554;28;20545;-56
2021/12/25 07:58:51;;;;;;;16.60;7.20;;;;;;;10.20;51.84;100393.41;5094477;28;20106;-54
2021/12/25 08:01:17;;;;;;;17.38;8.07;;;;;;;10.15;52.02;100400.16;5076967;28;20030;-56
2021/12/25 08:03:42;;;;;;;15.88;8.27;;;;;;;10.16;51.79;100396.50;5094545;28;20540;-56
2021/12/25 08:06:07;;;;;;;16.98;7.80;;;;;;;10.13;51.93;100405.66;5094659;28;20468;-56
2021/12/25 08:08:33;;;;;;;13.45;6.95;;;;;;;10.13;52.15;100412.84;5094694;28;20457;-56
2021/12/25 08:10:58;;;;;;;11.63;6.85;;;;;;;10.03;51.78;100395.84;5094633;28;20020;-56
2021/12/25 08:13:24;;;;;;;12.73;6.70;;;;;;;10.16;51.73;100407.22;5095230;28;20125;-56
2021/12/25 08:15:49;;;;;;;14.30;5.80;;;;;;;10.15;52.34;100418.91;5093000;28;20118;-56
2021/12/25 08:18:14;;;;;;;13.82;6.60;;;;;;;10.11;51.91;100409.41;5094054;28;20036;-53
2021/12/25 08:20:40;;;;;;;11.65;6.68;;;;;;;10.06;51.72;100417.00;5094353;28;20028;-56
2021/12/25 08:23:07;;;;;;;13.70;7.10;;;;;;;10.09;51.62;100422.06;5094240;28;20024;-53
2021/12/25 08:25:33;;;;;;;12.85;6.65;;;;;;;10.09;51.74;100432.78;5093331;28;20036;-54
2021/12/25 08:27:59;;;;;;;14.23;6.53;;;;;;;10.08;51.70;100431.09;5095192;28;20070;-56
2021/12/25 08:30:28;;;;;;;13.82;6.43;;;;;;;10.05;51.59;100432.19;5094677;28;20016;-56
2021/12/25 08:32:57;;;;;;;12.65;6.20;;;;;;;10.07;51.37;100434.75;5093174;28;20068;-56
2021/12/25 08:35:23;;;;;;;15.75;7.53;;;;;;;10.08;51.54;100436.47;5094349;28;20024;-56
2021/12/25 08:37:49;;;;;;;15.02;7.10;;;;;;;10.06;51.30;100443.75;5094479;28;20532;-56
2021/12/25 08:40:15;;;;;;;16.83;7.82;;;;;;;10.06;52.06;100441.06;5093231;28;20107;-56
2021/12/25 08:42:46;;;;;;;16.08;7.85;;;;;;;10.08;51.14;100439.94;5090274;28;20035;-56
2021/12/25 08:45:30;;;;;;;16.17;6.70;;;;;;;10.11;51.50;100447.72;5091536;28;20020;-56
2021/12/25 08:47:56;;;;;;;17.23;8.15;;;;;;;10.14;51.38;100458.19;5092791;28;20024;-57
2021/12/25 08:50:22;;;;;;;17.77;8.27;;;;;;;10.12;51.54;100461.94;5091873;28;20016;-56
2021/12/25 08:52:47;;;;;;;16.00;7.97;;;;;;;10.12;51.46;100464.63;5091988;28;20031;-57
2021/12/25 08:55:12;;;;;;;15.25;7.93;;;;;;;10.10;51.20;100461.25;5092963;28;20044;-56
2021/12/25 08:57:38;;;;;;;16.23;7.68;;;;;;;10.12;51.24;100464.63;5092586;28;20035;-56
2021/12/25 09:00:04;;;;;;;14.60;7.65;;;;;;;10.14;51.28;100465.34;5093074;28;20099;-54
2021/12/25 09:02:29;;;;;;;17.63;8.57;;;;;;;10.14;50.64;100468.03;5094960;28;20127;-56
2021/12/25 09:04:55;;;;;;;16.73;7.40;;;;;;;10.14;51.17;100468.03;5095692;28;20499;-56
2021/12/25 09:07:20;;;;;;;15.80;7.63;;;;;;;10.12;50.44;100473.50;5121036;27;20036;-56
2021/12/25 09:09:46;;;;;;;17.20;7.95;;;;;;;10.12;51.02;100470.81;5096640;28;20058;-56
2021/12/25 09:12:15;;;;;;;14.95;7.18;;;;;;;10.11;50.53;100473.63;5096651;28;20028;-56
2021/12/25 09:14:40;;;;;;;16.92;8.38;;;;;;;10.07;50.38;100467.72;5095389;28;20468;-56
2021/12/25 09:17:07;;;;;;;21.23;8.05;;;;;;;10.08;51.49;100479.28;5095307;28;20028;-56
2021/12/25 09:19:33;;;;;;;16.02;7.30;;;;;;;10.07;50.80;100489.13;5095266;28;20066;-54
2021/12/25 09:21:59;;;;;;;18.33;8.60;;;;;;;10.06;50.24;100486.56;5096537;28;20460;-54
2021/12/25 09:24:25;;;;;;;14.10;7.63;;;;;;;10.03;50.34;100473.44;5096517;28;20466;-54
2021/12/25 09:26:50;;;;;;;15.98;8.13;;;;;;;10.02;50.66;100477.13;5078078;28;20020;-54
2021/12/25 09:29:16;;;;;;;20.58;9.80;;;;;;;10.01;51.05;100467.41;5095016;28;20027;-55
2021/12/25 09:31:42;;;;;;;18.48;8.43;;;;;;;10.04;51.41;100480.50;5096141;28;20023;-55
2021/12/25 09:34:07;;;;;;;20.92;9.25;;;;;;;10.04;50.90;100483.19;5096515;28;20486;-54
2021/12/25 09:36:34;;;;;;;16.55;8.98;;;;;;;10.04;51.24;100488.53;5095987;28;20020;-55
2021/12/25 09:39:00;;;;;;;17.08;8.80;;;;;;;10.02;50.82;100483.34;5096078;28;20024;-54
2021/12/25 09:41:25;;;;;;;15.90;8.48;;;;;;;10.01;51.15;100489.66;5096307;28;20053;-54
2021/12/25 09:43:51;;;;;;;18.23;8.95;;;;;;;9.98;49.69;100489.06;5080853;28;20472;-55
2021/12/25 09:46:17;;;;;;;15.60;7.22;;;;;;;9.97;50.39;100498.09;5097242;28;20153;-55
2021/12/25 09:48:43;;;;;;;20.05;10.15;;;;;;;10.00;50.80;100514.69;5096698;28;20020;-55
2021/12/25 09:51:08;;;;;;;17.58;8.63;;;;;;;10.03;50.87;100513.59;5096483;28;20039;-55
2021/12/25 09:53:34;;;;;;;17.52;9.07;;;;;;;10.08;50.61;100520.22;5095753;28;20108;-55
2021/12/25 09:56:01;;;;;;;18.40;8.15;;;;;;;10.10;50.80;100528.16;5100540;28;20054;-55
2021/12/25 09:58:27;;;;;;;18.30;8.65;;;;;;;10.09;50.73;100529.13;5098830;28;20015;-55
2021/12/25 10:00:53;;;;;;;21.38;9.35;;;;;;;10.16;50.52;100536.50;5098840;28;20395;-55
2021/12/25 10:03:20;;;;;;;18.50;8.88;;;;;;;10.18;50.15;100533.69;5099098;28;20023;-54
2021/12/25 10:05:47;;;;;;;18.00;8.75;;;;;;;10.23;50.44;100542.16;5096928;28;20032;-55
2021/12/25 10:08:17;;;;;;;15.23;7.65;;;;;;;10.23;50.22;100542.16;5096012;28;20506;-55
2021/12/25 10:10:48;;;;;;;16.25;8.50;;;;;;;10.24;50.48;100533.16;5097215;28;20039;-55
2021/12/25 10:13:32;;;;;;;16.35;8.27;;;;;;;10.24;50.44;100527.81;5095275;28;20024;-54
2021/12/25 10:16:17;;;;;;;17.02;8.57;;;;;;;10.25;50.58;100526.81;5096738;28;20059;-55
2021/12/25 10:18:42;;;;;;;19.58;8.50;;;;;;;10.26;50.39;100520.50;5096814;28;20062;-54
2021/12/25 10:21:23;;;;;;;18.73;7.45;;;;;;;10.26;50.48;100515.13;5096824;28;20389;-54
2021/12/25 10:24:27;;;;;;;15.63;7.95;;;;;;;10.25;50.15;100518.78;5078547;28;20027;-54
2021/12/25 10:26:53;;;;;;;16.48;8.13;;;;;;;10.23;50.52;100510.06;5076471;28;20473;-54
2021/12/25 10:29:25;;;;;;;16.85;8.82;;;;;;;10.26;50.18;100509.78;5076248;28;20020;-55
2021/12/25 10:31:52;;;;;;;16.95;9.00;;;;;;;10.26;50.32;100516.00;5058780;28;20078;-54
2021/12/25 10:34:20;;;;;;;17.13;9.00;;;;;;;10.26;50.70;100505.28;5076744;28;20020;-54
2021/12/25 10:36:46;;;;;;;18.58;8.68;;;;;;;10.30;50.40;100505.88;5076378;28;20481;-54
2021/12/25 10:39:17;;;;;;;16.30;8.00;;;;;;;10.27;50.55;100503.47;5076511;28;20047;-54
2021/12/25 10:42:07;;;;;;;15.93;8.45;;;;;;;10.33;50.42;100510.97;5093684;28;20388;-55
2021/12/25 10:44:35;;;;;;;14.93;7.75;;;;;;;10.33;49.45;100516.31;5078690;28;20188;-54
2021/12/25 10:47:05;;;;;;;20.05;9.23;;;;;;;10.33;50.68;100513.63;5096168;28;20031;-55
2021/12/25 10:49:52;;;;;;;17.63;8.60;;;;;;;10.35;50.30;100517.88;5096220;28;20042;-55
2021/12/25 10:52:26;;;;;;;18.98;8.93;;;;;;;10.36;50.61;100518.69;5095858;28;20016;-54
2021/12/25 10:54:58;;;;;;;20.98;9.43;;;;;;;10.37;50.29;100523.91;5096177;28;20024;-55
2021/12/25 10:57:40;;;;;;;20.90;10.33;;;;;;;10.36;50.25;100521.38;5096184;28;20028;-55
2021/12/25 11:00:15;;;;;;;19.63;9.40;;;;;;;10.34;49.91;100512.63;5095924;28;20411;-55
2021/12/25 11:02:47;;;;;;;20.60;8.73;;;;;;;10.35;50.73;100519.69;5096074;28;20027;-55
2021/12/25 11:05:31;;;;;;;16.02;8.93;;;;;;;10.35;49.73;100508.97;5095736;28;20031;-55
2021/12/25 11:08:04;;;;;;;19.77;9.88;;;;;;;10.38;49.86;100508.72;5094935;28;20086;-55
2021/12/25 11:10:30;;;;;;;17.92;8.68;;;;;;;10.41;51.06;100511.13;5095975;28;20027;-54
2021/12/25 11:12:59;;;;;;;18.33;9.43;;;;;;;10.43;50.03;100501.13;5096004;28;20031;-55
2021/12/25 11:15:32;;;;;;;16.80;9.43;;;;;;;10.45;50.13;100505.34;5095542;28;20027;-55
2021/12/25 11:18:06;;;;;;;19.73;8.70;;;;;;;10.44;50.34;100486.75;5094523;28;20083;-55
2021/12/25 11:20:38;;;;;;;18.10;8.80;;;;;;;10.43;50.07;100498.44;5095601;28;20020;-55
2021/12/25 11:23:06;;;;;;;16.23;8.30;;;;;;;10.37;50.34;100486.44;5095100;28;20540;-55
2021/12/25 11:25:33;;;;;;;13.80;8.07;;;;;;;10.34;50.00;100499.25;5094667;28;20027;-55
2021/12/25 11:28:01;;;;;;;13.63;6.72;;;;;;;10.27;49.95;100492.75;5093949;28;20111;-55
2021/12/25 11:30:30;;;;;;;13.32;7.93;;;;;;;10.20;50.00;100486.22;5095460;28;20023;-55
2021/12/25 11:32:56;;;;;;;17.48;9.32;;;;;;;10.16;49.56;100476.78;5095538;28;20369;-55
2021/12/25 11:35:22;;;;;;;23.25;8.82;;;;;;;10.16;50.00;100485.66;5095483;28;20031;-55
2021/12/25 11:37:48;;;;;;;13.35;6.95;;;;;;;10.16;49.86;100474.94;5093879;28;20020;-55
2021/12/25 11:40:15;;;;;;;17.20;9.05;;;;;;;10.19;50.08;100487.22;5094025;28;20565;-55
2021/12/25 11:42:48;;;;;;;16.63;7.90;;;;;;;10.22;50.21;100486.94;5093644;28;20028;-55
2021/12/25 11:45:18;;;;;;;17.25;9.32;;;;;;;10.29;50.23;100483.59;5095478;28;20016;-55
2021/12/25 11:47:46;;;;;;;19.02;8.68;;;;;;;10.33;50.11;100494.91;5094800;28;20036;-55
2021/12/25 11:50:17;;;;;;;17.08;9.55;;;;;;;10.38;49.76;100492.66;5095157;28;20020;-55
2021/12/25 11:52:51;;;;;;;22.17;9.50;;;;;;;10.37;49.87;100496.31;5094590;28;20028;-55
2021/12/25 11:56:02;;;;;;;14.32;7.85;;;;;;;10.44;50.05;100497.47;5094512;28;20035;-55
2021/12/25 11:58:40;;;;;;;14.15;7.55;;;;;;;10.45;49.93;100493.78;5094488;28;20017;-55
2021/12/25 12:01:17;;;;;;;;;;;;;;;10.44;49.88;100492.09;5095070;28;20027;-55
2021/12/25 12:03:46;;;;;;;13.85;7.47;;;;;;;10.41;50.08;100492.38;5094527;28;20026;-55
2021/12/25 12:06:13;;;;;;;12.50;7.78;;;;;;;10.39;49.82;100494.31;5094494;28;20402;-55
2021/12/25 12:08:53;;;;;;;14.07;8.00;;;;;;;10.33;49.64;100506.41;5094251;28;20031;-55
2021/12/25 12:11:25;;;;;;;10.30;6.20;;;;;;;10.28;49.90;100508.66;5094550;28;20492;-55
2021/12/25 12:14:35;;;;;;;12.43;6.95;;;;;;;10.27;49.74;100506.13;5076024;28;20488;-55
2021/12/25 12:17:09;;;;;;;13.95;7.60;;;;;;;10.30;50.08;100495.97;5090430;28;20056;-55
2021/12/25 12:19:38;;;;;;;12.07;7.43;;;;;;;10.37;49.68;100496.31;5093146;28;20557;-56
2021/12/25 12:22:20;;;;;;;12.20;7.53;;;;;;;10.44;48.82;100495.59;5095065;28;20032;-55
2021/12/25 12:25:13;;;;;;;12.07;6.85;;;;;;;10.48;50.14;100501.53;5094461;28;20047;-55
2021/12/25 12:27:41;;;;;;;11.68;6.88;;;;;;;10.46;49.78;100495.50;5093174;28;20024;-55
2021/12/25 12:30:11;;;;;;;13.45;6.22;;;;;;;10.47;49.72;100497.16;5093471;28;20016;-55
2021/12/25 12:32:44;;;;;;;15.45;6.43;;;;;;;10.48;49.60;100498.88;5094460;28;20027;-55
2021/12/25 12:35:30;;;;;;;9.55;6.57;;;;;;;10.47;49.63;100500.69;5095747;28;20028;-55